createdAt,value
2019-03-27T00:03:55.432Z,61.10
2019-03-27T00:08:57.203Z,65.10
2019-03-27T00:13:58.804Z,42.20
2019-03-27T00:19:00.594Z,58.00
2019-03-27T00:24:02.269Z,48.60
2019-03-27T00:29:03.951Z,70.27
2019-03-27T00:34:05.661Z,43.63
2019-03-27T00:39:07.411Z,43.83
2019-03-27T00:44:10.050Z,62.43
2019-03-27T00:49:11.930Z,54.37
2019-03-27T00:54:16.190Z,49.33
2019-03-27T00:59:19.389Z,61.27
2019-03-27T01:04:21.287Z,27.63
2019-03-27T01:09:23.199Z,36.90
2019-03-27T01:14:24.852Z,36.33
2019-03-27T01:19:26.609Z,72.00
2019-03-27T01:24:31.679Z,58.33
2019-03-27T01:29:37.407Z,54.27
2019-03-27T01:34:39.176Z,41.73
2019-03-27T01:39:41.075Z,46.10
2019-03-27T01:44:42.833Z,49.17
2019-03-27T01:49:44.609Z,49.13
2019-03-27T01:54:46.658Z,59.63
2019-03-27T01:59:48.798Z,41.13
2019-03-27T02:04:50.568Z,40.93
2019-03-27T02:09:52.330Z,42.53
2019-03-27T02:14:54.027Z,47.63
2019-03-27T02:19:55.726Z,45.93
2019-03-27T02:24:57.427Z,42.60
2019-03-27T02:29:59.126Z,43.47
2019-03-27T02:35:00.849Z,40.23
2019-03-27T02:40:04.591Z,50.83
2019-03-27T02:45:06.868Z,46.20
2019-03-27T02:50:08.899Z,31.87
2019-03-27T02:55:10.906Z,46.10
2019-03-27T03:00:13.129Z,33.83
2019-03-27T03:05:14.744Z,38.10
2019-03-27T03:10:17.126Z,26.67
2019-03-27T03:15:20.289Z,36.53
2019-03-27T03:20:22.057Z,42.87
2019-03-27T03:25:23.751Z,42.03
2019-03-27T03:30:25.451Z,28.60
2019-03-27T03:35:27.253Z,31.93
2019-03-27T03:40:29.049Z,36.10
2019-03-27T03:45:30.842Z,17.60
2019-03-27T03:50:40.407Z,45.40
2019-03-27T03:55:43.148Z,28.60
2019-03-27T04:00:44.945Z,24.37
2019-03-27T04:05:47.044Z,15.03
2019-03-27T04:10:48.843Z,27.70
2019-03-27T04:15:50.421Z,26.50
2019-03-27T04:20:52.142Z,24.70
2019-03-27T04:26:08.992Z,34.53
2019-03-27T04:30:57.475Z,22.67
2019-03-27T04:35:59.279Z,15.80
2019-03-27T04:41:01.068Z,27.77
2019-03-27T04:46:02.764Z,43.47
2019-03-27T04:51:04.977Z,23.73
2019-03-27T04:56:09.215Z,33.90
2019-03-27T05:01:11.438Z,37.03
2019-03-27T05:06:13.133Z,19.77
2019-03-27T05:11:14.826Z,26.80
2019-03-27T05:16:16.523Z,28.73
2019-03-27T05:21:18.231Z,35.50
2019-03-27T05:26:20.031Z,34.07
2019-03-27T05:31:21.678Z,27.93
2019-03-27T05:36:23.692Z,27.83
2019-03-27T05:41:25.962Z,34.90
2019-03-27T05:46:28.197Z,24.77
2019-03-27T05:51:30.001Z,53.53
2019-03-27T05:56:32.015Z,26.80
2019-03-27T06:01:34.207Z,23.13
2019-03-27T06:06:36.377Z,29.53
2019-03-27T06:11:38.115Z,63.50
2019-03-27T06:16:40.388Z,44.30
2019-03-27T06:21:42.108Z,47.83
2019-03-27T06:26:43.843Z,33.77
2019-03-27T06:31:45.527Z,24.20
2019-03-27T06:36:47.247Z,28.17
2019-03-27T06:41:48.969Z,33.43
2019-03-27T06:47:01.538Z,30.70
2019-03-27T06:52:05.105Z,59.57
2019-03-27T06:57:06.950Z,31.93
2019-03-27T07:02:08.678Z,37.07
2019-03-27T07:07:13.622Z,34.07
2019-03-27T07:12:21.324Z,26.53
2019-03-27T07:17:20.492Z,30.40
2019-03-27T07:22:22.585Z,27.37
2019-03-27T07:27:24.167Z,23.87
2019-03-27T07:32:26.213Z,41.77
2019-03-27T07:37:27.881Z,35.80
2019-03-27T07:42:29.535Z,36.83
2019-03-27T07:47:31.301Z,38.50
2019-03-27T07:52:33.177Z,30.87
2019-03-27T07:57:34.934Z,55.00
2019-03-27T08:02:37.644Z,49.17
2019-03-27T08:07:39.418Z,48.60
2019-03-27T08:12:41.192Z,45.33
2019-03-27T08:17:42.786Z,43.07
2019-03-27T08:22:45.324Z,35.60
2019-03-27T08:27:46.973Z,33.30
2019-03-27T08:32:48.726Z,42.00
2019-03-27T08:37:50.457Z,43.87
2019-03-27T08:42:52.451Z,35.63
2019-03-27T08:47:54.212Z,53.27
2019-03-27T08:52:56.944Z,57.93
2019-03-27T08:57:58.836Z,60.20
2019-03-27T09:03:00.710Z,59.50
2019-03-27T09:08:16.920Z,62.60
2019-03-27T09:13:19.149Z,52.43
2019-03-27T09:18:20.847Z,45.80
2019-03-27T09:23:22.777Z,43.00
2019-03-27T09:28:24.937Z,46.87
2019-03-27T09:33:26.587Z,28.03
2019-03-27T09:38:28.627Z,39.97
2019-03-27T09:43:30.421Z,31.73
2019-03-27T09:48:32.944Z,37.20
2019-03-27T09:53:35.460Z,38.67
2019-03-27T09:58:37.264Z,35.47
2019-03-27T10:03:39.066Z,32.47
2019-03-27T10:08:41.060Z,52.60
2019-03-27T10:13:42.980Z,36.23
2019-03-27T10:18:47.322Z,41.47
2019-03-27T10:23:49.144Z,47.57
2019-03-27T10:28:51.333Z,45.83
2019-03-27T10:33:53.338Z,35.43
2019-03-27T10:38:55.071Z,39.93
2019-03-27T10:43:56.779Z,32.13
2019-03-27T10:48:58.505Z,35.23
2019-03-27T10:54:00.665Z,40.70
2019-03-27T10:59:02.634Z,32.53
2019-03-27T11:04:06.599Z,24.50
2019-03-27T11:09:08.707Z,42.90
2019-03-27T11:14:12.412Z,32.93
2019-03-27T11:19:14.337Z,33.97
2019-03-27T11:24:16.494Z,25.20
2019-03-27T11:29:18.159Z,40.70
2019-03-27T11:34:20.101Z,44.73
2019-03-27T11:39:24.823Z,46.13
2019-03-27T11:44:26.868Z,41.70
2019-03-27T11:49:28.454Z,39.03
2019-03-27T11:54:30.698Z,32.27
2019-03-27T11:59:32.597Z,31.20
2019-03-27T12:04:34.305Z,33.20
2019-03-27T12:09:35.914Z,28.43
2019-03-27T12:14:37.688Z,16.03
2019-03-27T12:19:39.350Z,23.80
2019-03-27T12:24:41.623Z,27.83
2019-03-27T12:29:43.348Z,15.83
2019-03-27T12:34:47.241Z,27.40
2019-03-27T12:39:49.079Z,25.20
2019-03-27T12:44:50.818Z,20.63
2019-03-27T12:49:52.632Z,9.70
2019-03-27T12:54:54.778Z,11.50
2019-03-27T12:59:56.682Z,21.03
2019-03-27T13:04:58.419Z,17.73
2019-03-27T13:10:00.590Z,7.73
2019-03-27T13:15:05.310Z,9.53
2019-03-27T13:20:08.447Z,5.13
2019-03-27T13:25:10.682Z,9.20
2019-03-27T13:30:12.725Z,10.17
2019-03-27T13:35:15.290Z,6.20
2019-03-27T13:40:17.283Z,4.30
2019-03-27T13:45:19.302Z,10.07
2019-03-27T13:50:21.187Z,9.93
2019-03-27T13:55:23.318Z,14.63
2019-03-27T14:00:32.274Z,15.27
2019-03-27T14:05:34.209Z,15.87
2019-03-27T14:10:35.895Z,25.60
2019-03-27T14:15:38.768Z,25.00
2019-03-27T14:20:40.417Z,34.60
2019-03-27T14:25:42.450Z,24.27
2019-03-27T14:30:52.009Z,41.33
2019-03-27T14:35:53.737Z,37.17
2019-03-27T14:40:55.919Z,39.33
2019-03-27T14:45:57.967Z,31.83
2019-03-27T14:50:59.666Z,40.77
2019-03-27T14:56:01.366Z,30.70
2019-03-27T15:01:03.758Z,46.87
2019-03-27T15:06:05.495Z,35.00
2019-03-27T15:11:07.784Z,32.43
2019-03-27T15:16:09.473Z,35.07
2019-03-27T15:21:11.153Z,24.70
2019-03-27T15:26:13.232Z,33.57
2019-03-27T15:31:20.822Z,26.27
2019-03-27T15:36:19.328Z,24.07
2019-03-27T15:41:20.963Z,27.60
2019-03-27T15:46:22.667Z,34.73
2019-03-27T15:51:24.362Z,42.57
2019-03-27T15:56:26.371Z,35.50
2019-03-27T16:01:29.790Z,30.60
2019-03-27T16:06:31.700Z,28.87
2019-03-27T16:11:33.493Z,28.43
2019-03-27T16:16:35.391Z,24.40
2019-03-27T16:21:37.805Z,27.50
2019-03-27T16:26:40.024Z,34.40
2019-03-27T16:31:42.336Z,24.50
2019-03-27T16:36:44.146Z,19.47
2019-03-27T16:41:45.935Z,22.87
2019-03-27T16:46:47.663Z,29.20
2019-03-27T16:51:49.435Z,56.43
2019-03-27T16:56:51.147Z,68.97
2019-03-27T17:01:53.337Z,66.30
2019-03-27T17:06:55.240Z,69.60
2019-03-27T17:11:57.043Z,71.67
2019-03-27T17:16:59.776Z,83.60
2019-03-27T17:22:01.526Z,86.43
2019-03-27T17:27:03.246Z,88.30
2019-03-27T17:32:05.433Z,83.90
2019-03-27T17:37:07.169Z,86.47
2019-03-27T17:42:08.968Z,76.63
2019-03-27T17:47:10.654Z,89.10
2019-03-27T17:52:12.412Z,68.83
2019-03-27T17:57:14.234Z,63.57
2019-03-27T18:02:16.636Z,58.17
2019-03-27T18:07:18.857Z,53.03
2019-03-27T18:12:20.743Z,40.90
2019-03-27T18:17:36.120Z,65.43
2019-03-27T18:22:38.200Z,47.87
2019-03-27T18:27:40.078Z,64.20
2019-03-27T18:32:42.760Z,94.93
2019-03-27T18:37:44.701Z,53.83
2019-03-27T18:42:46.423Z,78.67
2019-03-27T18:47:48.322Z,78.63
2019-03-27T18:52:50.361Z,77.23
2019-03-27T18:58:00.186Z,76.20
2019-03-27T19:02:56.981Z,73.40
2019-03-27T19:07:59.005Z,74.23
2019-03-27T19:13:00.910Z,72.83
2019-03-27T19:18:05.104Z,63.60
2019-03-27T19:23:06.909Z,80.20
2019-03-27T19:28:08.736Z,76.83
2019-03-27T19:33:10.939Z,80.53
2019-03-27T19:38:12.865Z,55.37
2019-03-27T19:43:14.637Z,81.80
2019-03-27T19:48:19.093Z,91.70
2019-03-27T19:53:21.021Z,134.17
2019-03-27T19:58:23.113Z,88.77
2019-03-27T20:03:25.421Z,123.63
2019-03-27T20:08:27.226Z,121.30
2019-03-27T20:13:29.128Z,101.37
2019-03-27T20:18:31.234Z,110.47
2019-03-27T20:23:33.138Z,140.50
2019-03-27T20:28:35.665Z,116.87
2019-03-27T20:33:38.418Z,130.23
2019-03-27T20:38:40.390Z,123.63
2019-03-27T20:43:42.396Z,127.70
2019-03-27T20:48:44.304Z,93.30
2019-03-27T20:53:46.177Z,104.50
2019-03-27T20:58:47.956Z,101.60
2019-03-27T21:03:50.264Z,96.80
2019-03-27T21:08:52.286Z,107.33
2019-03-27T21:13:56.039Z,107.43
2019-03-27T21:18:58.047Z,128.90
2019-03-27T21:23:59.693Z,119.00
2019-03-27T21:29:01.384Z,124.93
2019-03-27T21:34:07.392Z,131.10
2019-03-27T21:39:09.182Z,151.17
2019-03-27T21:44:11.300Z,151.50
2019-03-27T21:49:12.903Z,124.70
2019-03-27T21:54:14.579Z,143.03
2019-03-27T21:59:16.238Z,126.50
2019-03-27T22:04:18.546Z,149.40
2019-03-27T22:09:20.257Z,132.70
2019-03-27T22:14:21.948Z,131.07
2019-03-27T22:19:23.647Z,127.13
2019-03-27T22:24:25.461Z,152.27
2019-03-27T22:29:27.152Z,117.00
2019-03-27T22:34:28.806Z,122.40
2019-03-27T22:39:30.651Z,146.30
2019-03-27T22:44:32.272Z,101.83
2019-03-27T22:49:33.978Z,123.43
2019-03-27T22:54:35.675Z,120.20
2019-03-27T22:59:37.342Z,120.83
2019-03-27T23:04:40.999Z,121.50
2019-03-27T23:09:43.333Z,115.73
2019-03-27T23:14:44.990Z,112.83
2019-03-27T23:19:46.690Z,112.90
2019-03-27T23:24:48.349Z,103.60
2019-03-27T23:29:50.033Z,79.03
2019-03-27T23:34:51.703Z,109.60
2019-03-27T23:39:53.385Z,122.90
2019-03-27T23:44:58.151Z,94.80
2019-03-27T23:49:59.910Z,91.67
2019-03-27T23:55:02.017Z,96.93
